createdAt,value
2023-05-05T00:01:38.285Z,82.55
2023-05-05T00:04:09.885Z,82.62
2023-05-05T00:06:42.423Z,82.76
2023-05-05T00:09:14.167Z,82.76
2023-05-05T00:11:46.029Z,83.13
2023-05-05T00:14:18.289Z,83.38
2023-05-05T00:16:50.278Z,83.81
2023-05-05T00:19:22.243Z,83.93
2023-05-05T00:21:54.322Z,84.37
2023-05-05T00:24:26.520Z,84.73
2023-05-05T00:26:58.172Z,84.90
2023-05-05T00:29:30.093Z,85.28
2023-05-05T00:32:02.111Z,85.82
2023-05-05T00:34:34.009Z,86.10
2023-05-05T00:37:05.538Z,86.38
2023-05-05T00:39:37.353Z,86.72
2023-05-05T00:42:09.041Z,87.62
2023-05-05T00:44:41.879Z,88.26
2023-05-05T00:47:13.536Z,88.69
2023-05-05T00:49:45.170Z,89.20
2023-05-05T00:52:16.689Z,89.72
2023-05-05T00:54:48.474Z,90.11
2023-05-05T00:57:20.549Z,90.80
2023-05-05T00:59:52.437Z,91.06
2023-05-05T01:02:24.046Z,91.30
2023-05-05T01:04:55.955Z,91.50
2023-05-05T01:07:43.716Z,91.95
2023-05-05T01:10:27.686Z,92.54
2023-05-05T01:13:21.438Z,93.34
2023-05-05T01:16:02.824Z,94.24
2023-05-05T01:18:59.439Z,94.96
2023-05-05T01:21:36.482Z,96.20
2023-05-05T01:24:45.066Z,96.63
2023-05-05T01:27:47.380Z,97.14
2023-05-05T01:30:28.192Z,97.75
2023-05-05T01:33:02.058Z,99.37
2023-05-05T01:35:44.866Z,99.89
2023-05-05T01:38:21.014Z,100.00
2023-05-05T01:41:09.713Z,100.00
2023-05-05T01:43:41.796Z,100.00
2023-05-05T01:46:13.647Z,100.00
2023-05-05T01:48:46.009Z,100.00
2023-05-05T01:51:18.489Z,100.00
2023-05-05T01:53:53.421Z,100.00
2023-05-05T01:56:25.729Z,100.00
2023-05-05T01:58:57.762Z,100.00
2023-05-05T02:01:29.395Z,100.00
2023-05-05T02:04:04.677Z,100.00
2023-05-05T02:06:36.753Z,100.00
2023-05-05T02:09:09.805Z,100.00
2023-05-05T02:11:41.440Z,100.00
2023-05-05T02:14:13.049Z,100.00
2023-05-05T02:16:44.898Z,100.00
2023-05-05T02:19:16.881Z,100.00
2023-05-05T02:21:48.915Z,100.00
2023-05-05T02:24:20.676Z,100.00
2023-05-05T02:26:53.597Z,100.00
2023-05-05T02:29:36.557Z,100.00
2023-05-05T02:32:14.262Z,100.00
2023-05-05T02:34:46.029Z,100.00
2023-05-05T02:37:20.992Z,100.00
2023-05-05T02:39:57.930Z,100.00
2023-05-05T02:42:32.280Z,100.00
2023-05-05T02:45:10.850Z,100.00
2023-05-05T02:47:44.104Z,99.70
2023-05-05T02:50:16.039Z,99.50
2023-05-05T02:52:49.467Z,99.71
2023-05-05T02:55:21.456Z,99.19
2023-05-05T02:58:07.564Z,98.84
2023-05-05T03:00:49.806Z,98.52
2023-05-05T03:03:31.317Z,98.14
2023-05-05T03:06:08.649Z,97.58
2023-05-05T03:08:49.063Z,97.18
2023-05-05T03:11:46.857Z,97.30
2023-05-05T03:14:21.150Z,96.60
2023-05-05T03:16:53.406Z,95.98
2023-05-05T03:19:25.130Z,95.80
2023-05-05T03:21:58.705Z,95.69
2023-05-05T03:24:30.677Z,95.75
2023-05-05T03:27:04.095Z,95.99
2023-05-05T03:29:37.484Z,95.92
2023-05-05T03:32:11.059Z,95.76
2023-05-05T03:34:43.171Z,95.50
2023-05-05T03:37:14.994Z,95.18
2023-05-05T03:39:46.956Z,95.38
2023-05-05T03:42:18.709Z,95.53
2023-05-05T03:44:51.979Z,95.30
2023-05-05T03:47:24.676Z,96.09
2023-05-05T03:49:56.899Z,96.98
2023-05-05T03:52:29.466Z,97.79
2023-05-05T03:55:01.390Z,98.95
2023-05-05T03:57:34.432Z,100.00
2023-05-05T04:00:26.310Z,100.00
2023-05-05T04:02:58.321Z,100.00
2023-05-05T04:05:30.044Z,100.00
2023-05-05T04:08:01.725Z,100.00
2023-05-05T04:10:34.003Z,100.00
2023-05-05T04:13:05.947Z,100.00
2023-05-05T04:15:38.602Z,100.00
2023-05-05T04:18:11.983Z,100.00
2023-05-05T04:20:43.708Z,100.00
2023-05-05T04:23:16.359Z,100.00
2023-05-05T04:25:48.983Z,100.00
2023-05-05T04:28:21.764Z,100.00
2023-05-05T04:30:53.893Z,100.00
2023-05-05T04:33:25.908Z,100.00
2023-05-05T04:35:58.513Z,100.00
2023-05-05T04:38:30.897Z,100.00
2023-05-05T04:41:07.314Z,100.00
2023-05-05T04:43:39.802Z,100.00
2023-05-05T04:46:11.361Z,100.00
2023-05-05T04:48:43.902Z,100.00
2023-05-05T04:51:15.707Z,100.00
2023-05-05T04:53:47.651Z,100.00
2023-05-05T04:56:19.269Z,100.00
2023-05-05T04:58:51.444Z,100.00
2023-05-05T05:01:23.190Z,100.00
2023-05-05T05:03:54.974Z,100.00
2023-05-05T05:06:27.222Z,100.00
2023-05-05T05:08:59.602Z,100.00
2023-05-05T05:11:31.289Z,100.00
2023-05-05T05:14:04.289Z,100.00
2023-05-05T05:16:36.380Z,100.00
2023-05-05T05:19:08.407Z,100.00
2023-05-05T05:21:40.457Z,100.00
2023-05-05T05:24:11.981Z,100.00
2023-05-05T05:26:43.738Z,100.00
2023-05-05T05:29:16.024Z,100.00
2023-05-05T05:31:47.797Z,100.00
2023-05-05T05:34:19.696Z,100.00
2023-05-05T05:36:51.194Z,100.00
2023-05-05T05:39:23.582Z,100.00
2023-05-05T05:41:55.474Z,98.54
2023-05-05T05:44:27.701Z,97.97
2023-05-05T05:47:00.207Z,94.82
2023-05-05T05:49:32.188Z,91.74
2023-05-05T05:52:04.848Z,89.19
2023-05-05T05:54:37.100Z,86.98
2023-05-05T05:57:09.015Z,85.08
2023-05-05T05:59:40.948Z,83.60
2023-05-05T06:02:12.789Z,80.48
2023-05-05T06:04:44.877Z,77.96
2023-05-05T06:07:16.546Z,77.36
2023-05-05T06:09:48.662Z,75.80
2023-05-05T06:18:54.687Z,71.42
2023-05-05T06:21:27.794Z,70.67
2023-05-05T06:36:52.168Z,66.60
2023-05-05T06:39:24.052Z,66.54
2023-05-05T06:41:55.552Z,65.25
2023-05-05T06:44:27.356Z,66.68
2023-05-05T06:46:59.242Z,65.71
2023-05-05T06:49:31.273Z,65.55
2023-05-05T06:52:02.890Z,65.41
2023-05-05T06:54:35.514Z,64.79
2023-05-05T06:57:07.312Z,64.77
2023-05-05T06:59:39.268Z,64.43
2023-05-05T07:02:11.226Z,64.74
2023-05-05T07:04:44.659Z,64.10
2023-05-05T07:07:16.759Z,64.49
2023-05-05T07:09:49.752Z,63.32
2023-05-05T07:12:21.921Z,64.86
2023-05-05T07:14:53.513Z,63.05
2023-05-05T07:17:25.187Z,63.21
2023-05-05T07:19:57.236Z,62.49
2023-05-05T07:22:28.761Z,61.88
2023-05-05T07:25:00.591Z,60.71
2023-05-05T07:27:36.078Z,61.13
2023-05-05T07:30:13.024Z,61.26
2023-05-05T07:32:43.853Z,61.22
2023-05-05T07:35:15.873Z,59.67
2023-05-05T07:37:47.926Z,59.90
2023-05-05T07:40:19.667Z,56.81
2023-05-05T07:42:51.815Z,56.97
2023-05-05T07:45:23.617Z,55.67
2023-05-05T07:47:55.870Z,54.19
2023-05-05T07:50:27.667Z,55.92
2023-05-05T07:53:10.652Z,51.46
2023-05-05T07:55:33.896Z,50.75
2023-05-05T07:58:05.690Z,50.81
2023-05-05T08:00:37.262Z,48.45
2023-05-05T08:03:11.589Z,48.39
2023-05-05T08:05:43.155Z,48.44
2023-05-05T08:08:15.407Z,48.39
2023-05-05T08:10:47.819Z,47.41
2023-05-05T08:13:20.156Z,46.84
2023-05-05T08:15:53.277Z,47.17
2023-05-05T08:18:25.334Z,47.97
2023-05-05T08:20:57.391Z,46.65
2023-05-05T08:23:29.098Z,45.98
2023-05-05T08:26:01.475Z,45.76
2023-05-05T08:28:39.666Z,43.96
2023-05-05T08:31:11.689Z,43.59
2023-05-05T08:33:43.286Z,43.99
2023-05-05T08:36:14.914Z,43.36
2023-05-05T08:38:47.606Z,43.36
2023-05-05T08:41:19.941Z,42.78
2023-05-05T08:43:51.935Z,41.60
2023-05-05T08:46:23.461Z,42.40
2023-05-05T08:48:56.256Z,41.67
2023-05-05T08:51:30.323Z,41.61
2023-05-05T08:54:05.586Z,40.75
2023-05-05T08:56:41.611Z,40.68
2023-05-05T08:59:15.172Z,42.05
2023-05-05T09:01:47.745Z,40.38
2023-05-05T09:04:19.826Z,40.34
2023-05-05T09:06:52.078Z,40.12
2023-05-05T09:09:24.445Z,39.79
2023-05-05T09:11:59.830Z,39.90
2023-05-05T09:14:31.578Z,39.82
2023-05-05T09:17:04.323Z,39.75
2023-05-05T09:19:58.417Z,40.87
2023-05-05T09:22:43.822Z,40.69
2023-05-05T09:25:17.396Z,39.63
2023-05-05T09:27:50.277Z,41.33
2023-05-05T09:30:34.529Z,40.65
2023-05-05T09:35:53.370Z,40.07
2023-05-05T09:38:25.655Z,39.41
2023-05-05T09:40:57.532Z,39.03
2023-05-05T09:43:29.247Z,39.15
2023-05-05T09:46:08.315Z,39.24
2023-05-05T09:48:40.390Z,37.21
2023-05-05T09:51:12.010Z,37.62
2023-05-05T09:53:43.881Z,37.54
2023-05-05T09:56:15.480Z,37.76
2023-05-05T09:58:47.104Z,36.09
2023-05-05T10:01:24.624Z,36.61
2023-05-05T10:03:56.163Z,36.64
2023-05-05T10:06:46.565Z,36.03
2023-05-05T10:09:18.408Z,36.27
2023-05-05T10:11:50.719Z,35.49
2023-05-05T10:14:22.785Z,35.80
2023-05-05T10:16:55.926Z,35.83
2023-05-05T10:19:28.500Z,34.35
2023-05-05T10:22:03.692Z,34.39
2023-05-05T10:24:40.934Z,35.13
2023-05-05T10:27:15.657Z,34.26
2023-05-05T10:30:12.095Z,33.64
2023-05-05T10:33:07.991Z,35.09
2023-05-05T10:35:27.967Z,35.08
2023-05-05T10:37:59.602Z,33.29
2023-05-05T10:40:31.272Z,34.13
2023-05-05T10:43:03.000Z,34.14
2023-05-05T10:45:34.945Z,33.34
2023-05-05T10:48:27.670Z,33.20
2023-05-05T10:53:50.518Z,32.93
2023-05-05T10:56:26.695Z,31.90
2023-05-05T10:59:00.599Z,33.12
2023-05-05T11:01:33.931Z,33.28
2023-05-05T11:04:20.269Z,31.56
2023-05-05T11:07:15.197Z,33.00
2023-05-05T11:09:58.525Z,32.87
2023-05-05T11:12:31.152Z,31.54
2023-05-05T11:18:36.844Z,31.37
2023-05-05T11:21:15.922Z,31.01
2023-05-05T11:23:53.349Z,31.59
2023-05-05T11:26:51.271Z,32.90
2023-05-05T11:29:23.154Z,31.19
2023-05-05T11:32:12.705Z,31.22
2023-05-05T11:34:51.158Z,31.17
2023-05-05T11:37:27.125Z,31.10
2023-05-05T11:40:05.464Z,30.39
2023-05-05T11:42:37.504Z,30.95
2023-05-05T11:45:21.807Z,30.23
2023-05-05T11:47:53.466Z,29.27
2023-05-05T11:50:25.350Z,29.66
2023-05-05T11:52:57.388Z,29.66
2023-05-05T11:55:30.653Z,29.15
2023-05-05T11:58:02.496Z,28.19
2023-05-05T12:00:34.432Z,29.31
2023-05-05T12:03:06.397Z,27.91
2023-05-05T12:05:38.129Z,29.51
2023-05-05T12:08:10.467Z,28.26
2023-05-05T12:10:42.520Z,28.12
2023-05-05T12:13:20.844Z,28.26
2023-05-05T12:15:52.579Z,30.23
2023-05-05T12:18:24.276Z,29.55
2023-05-05T12:20:55.807Z,28.79
2023-05-05T12:23:29.428Z,28.98
2023-05-05T12:26:00.930Z,27.69
2023-05-05T12:28:46.474Z,28.15
2023-05-05T12:31:18.187Z,29.37
2023-05-05T12:33:50.202Z,30.19
2023-05-05T12:36:22.482Z,29.46
2023-05-05T12:38:54.183Z,31.00
2023-05-05T12:41:26.299Z,31.69
2023-05-05T12:43:58.623Z,30.73
2023-05-05T12:46:32.107Z,31.23
2023-05-05T12:49:09.002Z,30.36
2023-05-05T12:51:42.425Z,30.97
2023-05-05T12:56:58.665Z,30.70
2023-05-05T12:59:31.090Z,31.94
2023-05-05T13:02:02.846Z,32.68
2023-05-05T13:04:35.581Z,31.55
2023-05-05T13:07:18.034Z,31.36
2023-05-05T13:09:50.387Z,32.71
2023-05-05T13:12:23.926Z,33.47
2023-05-05T13:14:57.269Z,32.73
2023-05-05T13:17:28.835Z,33.31
2023-05-05T13:20:00.499Z,31.88
2023-05-05T13:22:32.446Z,32.02
2023-05-05T13:25:04.191Z,31.89
2023-05-05T13:27:38.093Z,32.10
2023-05-05T13:30:11.036Z,32.53
2023-05-05T13:32:43.086Z,32.03
2023-05-05T13:35:16.436Z,33.43
2023-05-05T13:37:48.516Z,33.69
2023-05-05T13:40:20.067Z,33.47
2023-05-05T13:42:51.601Z,34.11
2023-05-05T13:45:23.460Z,33.87
2023-05-05T13:47:55.009Z,33.16
2023-05-05T13:50:26.789Z,33.57
2023-05-05T13:52:58.313Z,33.60
2023-05-05T13:55:30.699Z,33.25
2023-05-05T13:58:02.257Z,34.36
2023-05-05T14:00:35.607Z,35.33
2023-05-05T14:03:07.216Z,35.88
2023-05-05T14:08:24.984Z,35.18
2023-05-05T14:10:56.649Z,35.76
2023-05-05T14:13:28.491Z,35.18
2023-05-05T14:16:00.164Z,36.03
2023-05-05T14:18:32.617Z,35.96
2023-05-05T14:21:04.275Z,35.02
2023-05-05T14:23:36.637Z,34.46
2023-05-05T14:26:09.366Z,34.07
2023-05-05T14:28:42.328Z,34.73
2023-05-05T14:31:14.407Z,35.84
2023-05-05T14:33:46.184Z,34.69
2023-05-05T14:36:17.940Z,35.55
2023-05-05T14:38:49.877Z,35.99
2023-05-05T14:41:21.545Z,34.93
2023-05-05T14:43:53.264Z,36.32
2023-05-05T14:46:24.880Z,35.63
2023-05-05T14:48:57.080Z,34.95
2023-05-05T14:51:29.016Z,39.35
2023-05-05T14:54:00.730Z,37.49
2023-05-05T14:56:33.248Z,36.25
2023-05-05T14:59:08.471Z,36.75
2023-05-05T15:01:40.249Z,41.50
2023-05-05T15:04:12.142Z,41.39
2023-05-05T15:06:43.802Z,40.34
2023-05-05T15:09:17.113Z,38.61
2023-05-05T15:11:48.710Z,40.47
2023-05-05T15:14:20.626Z,41.25
2023-05-05T15:16:52.234Z,38.02
2023-05-05T15:19:24.183Z,36.15
2023-05-05T15:21:56.070Z,36.55
2023-05-05T15:24:27.736Z,36.37
2023-05-05T15:26:59.442Z,37.48
2023-05-05T15:29:31.152Z,37.30
2023-05-05T15:32:02.832Z,37.21
2023-05-05T15:34:34.787Z,37.55
2023-05-05T15:37:06.324Z,39.51
2023-05-05T15:39:37.947Z,41.26
2023-05-05T15:42:10.268Z,41.46
2023-05-05T15:44:41.810Z,40.65
2023-05-05T15:47:13.577Z,42.29
2023-05-05T15:49:45.144Z,41.97
2023-05-05T15:52:16.843Z,40.55
2023-05-05T15:54:48.412Z,40.99
2023-05-05T15:57:20.065Z,40.98
2023-05-05T15:59:55.107Z,42.09
2023-05-05T16:02:27.250Z,42.91
2023-05-05T16:04:58.942Z,43.17
2023-05-05T16:07:30.621Z,41.99
2023-05-05T16:10:02.254Z,41.83
2023-05-05T16:12:34.692Z,41.70
2023-05-05T16:15:07.220Z,40.56
2023-05-05T16:17:39.622Z,41.24
2023-05-05T16:20:12.249Z,41.89
2023-05-05T16:22:43.997Z,41.73
2023-05-05T16:25:17.384Z,42.99
2023-05-05T16:27:49.772Z,41.55
2023-05-05T16:30:21.652Z,41.30
2023-05-05T16:32:54.728Z,42.12
2023-05-05T16:35:26.695Z,42.83
2023-05-05T16:37:58.259Z,42.72
2023-05-05T16:40:29.836Z,42.21
2023-05-05T16:43:01.576Z,42.88
2023-05-05T16:45:33.348Z,44.53
2023-05-05T16:48:07.427Z,44.31
2023-05-05T16:50:38.741Z,45.10
2023-05-05T16:53:10.604Z,44.84
2023-05-05T16:55:42.541Z,42.74
2023-05-05T16:58:14.098Z,42.69
2023-05-05T17:00:47.056Z,42.88
2023-05-05T17:03:20.138Z,43.25
2023-05-05T17:05:51.908Z,42.83
2023-05-05T17:08:24.249Z,42.92
2023-05-05T17:10:55.901Z,43.25
2023-05-05T17:13:27.645Z,43.21
2023-05-05T17:15:59.393Z,43.40
2023-05-05T17:18:31.350Z,43.64
2023-05-05T17:21:03.105Z,43.87
2023-05-05T17:23:34.910Z,44.38
2023-05-05T17:26:06.475Z,44.80
2023-05-05T17:28:38.523Z,45.28
2023-05-05T17:31:10.092Z,45.80
2023-05-05T17:33:41.826Z,46.26
2023-05-05T17:36:13.733Z,46.63
2023-05-05T17:38:45.529Z,47.28
2023-05-05T17:41:17.102Z,47.63
2023-05-05T17:43:48.875Z,47.76
2023-05-05T17:46:20.601Z,47.95
2023-05-05T17:48:52.856Z,48.43
2023-05-05T17:51:24.656Z,48.65
2023-05-05T17:53:56.401Z,48.71
2023-05-05T17:56:28.075Z,49.02
2023-05-05T17:58:59.874Z,49.00
2023-05-05T18:01:32.304Z,49.18
2023-05-05T18:04:04.219Z,49.29
2023-05-05T18:06:35.964Z,49.53
2023-05-05T18:09:09.804Z,50.11
2023-05-05T18:11:42.256Z,50.47
2023-05-05T18:14:13.980Z,50.72
2023-05-05T18:16:47.232Z,50.85
2023-05-05T18:19:20.463Z,50.98
2023-05-05T18:21:54.368Z,51.19
2023-05-05T18:24:26.146Z,51.50
2023-05-05T18:26:58.410Z,52.20
2023-05-05T18:29:29.950Z,53.50
2023-05-05T18:32:01.849Z,54.38
2023-05-05T18:34:33.960Z,55.95
2023-05-05T18:37:05.702Z,57.95
2023-05-05T18:39:38.629Z,59.36
2023-05-05T18:42:10.508Z,59.15
2023-05-05T18:44:42.182Z,59.53
2023-05-05T18:47:13.934Z,60.24
2023-05-05T18:49:45.825Z,60.38
2023-05-05T18:52:17.621Z,60.75
2023-05-05T18:54:49.481Z,61.08
2023-05-05T18:57:22.297Z,61.00
2023-05-05T18:59:53.959Z,60.06
2023-05-05T19:02:25.959Z,60.09
2023-05-05T19:04:57.586Z,59.71
2023-05-05T19:07:35.569Z,58.81
2023-05-05T19:10:02.776Z,58.44
2023-05-05T19:12:34.783Z,57.18
2023-05-05T19:15:07.751Z,58.13
2023-05-05T19:17:40.040Z,58.60
2023-05-05T19:20:12.589Z,58.73
2023-05-05T19:22:44.680Z,58.35
2023-05-05T19:25:16.783Z,57.15
2023-05-05T19:27:48.390Z,57.81
2023-05-05T19:30:19.974Z,58.14
2023-05-05T19:32:51.763Z,58.92
2023-05-05T19:35:23.553Z,60.13
2023-05-05T19:37:55.874Z,60.00
2023-05-05T19:40:27.415Z,62.54
2023-05-05T19:42:59.735Z,64.70
2023-05-05T19:45:32.195Z,67.07
2023-05-05T19:48:04.400Z,68.58
2023-05-05T19:50:36.637Z,73.25
2023-05-05T19:53:09.724Z,75.66
2023-05-05T19:55:41.462Z,78.28
2023-05-05T19:58:13.297Z,80.45
2023-05-05T20:00:44.919Z,81.79
2023-05-05T20:03:16.855Z,82.79
2023-05-05T20:05:48.768Z,83.53
2023-05-05T20:08:21.061Z,84.05
2023-05-05T20:10:52.837Z,84.79
2023-05-05T20:13:24.804Z,84.13
2023-05-05T20:15:56.348Z,82.64
2023-05-05T20:18:28.735Z,78.90
2023-05-05T20:21:00.758Z,77.54
2023-05-05T20:23:32.618Z,76.18
2023-05-05T20:26:04.344Z,74.79
2023-05-05T20:28:38.234Z,74.78
2023-05-05T20:31:10.972Z,73.31
2023-05-05T20:33:42.712Z,73.93
2023-05-05T20:36:14.575Z,74.16
2023-05-05T20:38:46.131Z,71.59
2023-05-05T20:41:18.172Z,70.26
2023-05-05T20:43:49.808Z,71.77
2023-05-05T20:46:21.744Z,72.31
2023-05-05T20:48:53.533Z,71.40
2023-05-05T20:51:26.844Z,71.84
2023-05-05T20:53:58.920Z,73.81
2023-05-05T20:56:30.812Z,73.36
2023-05-05T20:59:04.138Z,72.59
2023-05-05T21:01:37.357Z,73.71
2023-05-05T21:04:09.193Z,74.95
2023-05-05T21:06:41.390Z,74.97
2023-05-05T21:09:13.162Z,75.62
2023-05-05T21:11:45.008Z,77.26
2023-05-05T21:14:17.292Z,77.12
2023-05-05T21:16:49.063Z,77.46
2023-05-05T21:19:21.247Z,77.44
2023-05-05T21:21:53.727Z,78.02
2023-05-05T21:24:25.854Z,78.29
2023-05-05T21:26:57.551Z,79.21
2023-05-05T21:29:29.408Z,79.90
2023-05-05T21:32:01.205Z,80.46
2023-05-05T21:34:33.255Z,80.31
2023-05-05T21:37:04.779Z,81.44
2023-05-05T21:39:36.623Z,80.04
2023-05-05T21:42:08.204Z,80.12
2023-05-05T21:44:40.078Z,81.36
2023-05-05T21:47:11.680Z,82.27
2023-05-05T21:49:43.363Z,82.97
2023-05-05T21:52:15.018Z,83.30
2023-05-05T21:54:46.900Z,84.25
2023-05-05T21:57:18.588Z,85.30
2023-05-05T21:59:50.228Z,85.05
2023-05-05T22:02:22.274Z,84.80
2023-05-05T22:04:54.215Z,84.91
2023-05-05T22:07:26.169Z,86.86
2023-05-05T22:09:57.790Z,87.84
2023-05-05T22:12:29.296Z,88.35
2023-05-05T22:15:01.489Z,88.33
2023-05-05T22:17:33.552Z,88.56
2023-05-05T22:20:06.405Z,87.85
2023-05-05T22:22:39.585Z,88.34
2023-05-05T22:25:11.668Z,88.49
2023-05-05T22:27:43.829Z,88.70
2023-05-05T22:30:15.424Z,90.29
2023-05-05T22:32:47.504Z,89.96
2023-05-05T22:35:19.412Z,91.17
2023-05-05T22:37:50.967Z,91.39
2023-05-05T22:40:22.581Z,91.26
2023-05-05T22:42:54.336Z,90.69
2023-05-05T22:45:26.177Z,90.85
2023-05-05T22:47:57.780Z,91.67
2023-05-05T22:50:29.615Z,92.41
2023-05-05T22:53:01.268Z,91.98
2023-05-05T22:55:32.976Z,92.15
2023-05-05T22:58:04.627Z,92.94
2023-05-05T23:00:36.853Z,93.28
2023-05-05T23:03:08.551Z,93.25
2023-05-05T23:05:40.635Z,92.75
2023-05-05T23:08:12.401Z,93.05
2023-05-05T23:10:43.972Z,92.72
2023-05-05T23:13:16.234Z,92.81
2023-05-05T23:15:47.928Z,94.15
2023-05-05T23:18:19.733Z,93.76
2023-05-05T23:20:51.318Z,93.50
2023-05-05T23:23:22.915Z,93.92
2023-05-05T23:25:54.555Z,94.27
2023-05-05T23:28:26.268Z,95.04
2023-05-05T23:30:58.956Z,95.61
2023-05-05T23:33:30.861Z,95.30
2023-05-05T23:36:02.530Z,95.20
2023-05-05T23:38:34.164Z,94.75
2023-05-05T23:41:06.500Z,95.27
2023-05-05T23:43:38.182Z,95.30
2023-05-05T23:46:10.066Z,94.39
2023-05-05T23:48:42.129Z,94.00
2023-05-05T23:51:14.046Z,94.42
2023-05-05T23:53:45.576Z,94.33
2023-05-05T23:56:17.327Z,94.41
2023-05-05T23:58:49.016Z,93.48
